sensor_id;sensor_type;location;lat;lon;timestamp;temperature;humidity
56512;DHT22;42408;53.238;5.686;2023-04-15T00:00:48;6.80;99.90
56512;DHT22;42408;53.238;5.686;2023-04-15T00:03:16;6.80;99.90
56512;DHT22;42408;53.238;5.686;2023-04-15T00:05:41;6.70;99.90
56512;DHT22;42408;53.238;5.686;2023-04-15T00:08:07;6.70;99.90
56512;DHT22;42408;53.238;5.686;2023-04-15T00:10:33;6.70;99.90
56512;DHT22;42408;53.238;5.686;2023-04-15T00:12:59;6.70;99.90
56512;DHT22;42408;53.238;5.686;2023-04-15T00:15:25;6.70;99.90
56512;DHT22;42408;53.238;5.686;2023-04-15T00:17:51;6.70;99.90
56512;DHT22;42408;53.238;5.686;2023-04-15T00:20:17;6.60;99.90
56512;DHT22;42408;53.238;5.686;2023-04-15T00:22:42;6.60;99.90
56512;DHT22;42408;53.238;5.686;2023-04-15T00:25:08;6.50;99.90
56512;DHT22;42408;53.238;5.686;2023-04-15T00:27:34;6.50;99.90
56512;DHT22;42408;53.238;5.686;2023-04-15T00:29:59;6.50;99.90
56512;DHT22;42408;53.238;5.686;2023-04-15T00:32:25;6.40;99.90
56512;DHT22;42408;53.238;5.686;2023-04-15T00:34:51;6.60;99.90
56512;DHT22;42408;53.238;5.686;2023-04-15T00:37:16;6.40;99.90
56512;DHT22;42408;53.238;5.686;2023-04-15T00:39:42;6.40;99.90
56512;DHT22;42408;53.238;5.686;2023-04-15T00:42:09;6.40;99.90
56512;DHT22;42408;53.238;5.686;2023-04-15T00:44:35;6.40;99.90
56512;DHT22;42408;53.238;5.686;2023-04-15T00:47:00;6.30;99.90
56512;DHT22;42408;53.238;5.686;2023-04-15T00:49:29;6.30;99.90
56512;DHT22;42408;53.238;5.686;2023-04-15T00:51:56;6.20;99.90
56512;DHT22;42408;53.238;5.686;2023-04-15T00:54:22;6.20;99.90
56512;DHT22;42408;53.238;5.686;2023-04-15T00:56:47;6.20;99.90
56512;DHT22;42408;53.238;5.686;2023-04-15T00:59:13;6.10;99.90
56512;DHT22;42408;53.238;5.686;2023-04-15T01:01:39;6.10;99.90
56512;DHT22;42408;53.238;5.686;2023-04-15T01:04:05;6.00;99.90
56512;DHT22;42408;53.238;5.686;2023-04-15T01:06:31;6.00;99.90
56512;DHT22;42408;53.238;5.686;2023-04-15T01:08:57;6.00;99.90
56512;DHT22;42408;53.238;5.686;2023-04-15T01:11:24;5.90;99.90
56512;DHT22;42408;53.238;5.686;2023-04-15T01:13:50;5.90;99.90
56512;DHT22;42408;53.238;5.686;2023-04-15T01:16:18;5.90;99.90
56512;DHT22;42408;53.238;5.686;2023-04-15T01:18:44;5.80;99.90
56512;DHT22;42408;53.238;5.686;2023-04-15T01:21:10;5.80;99.90
56512;DHT22;42408;53.238;5.686;2023-04-15T01:23:37;5.80;99.90
56512;DHT22;42408;53.238;5.686;2023-04-15T01:26:03;5.80;99.90
56512;DHT22;42408;53.238;5.686;2023-04-15T01:28:30;5.70;99.90
56512;DHT22;42408;53.238;5.686;2023-04-15T01:31:14;5.60;99.90
56512;DHT22;42408;53.238;5.686;2023-04-15T01:33:41;5.60;99.90
56512;DHT22;42408;53.238;5.686;2023-04-15T01:36:08;5.50;99.90
56512;DHT22;42408;53.238;5.686;2023-04-15T01:38:34;5.50;99.90
56512;DHT22;42408;53.238;5.686;2023-04-15T01:41:01;5.50;99.90
56512;DHT22;42408;53.238;5.686;2023-04-15T01:43:28;5.50;99.90
56512;DHT22;42408;53.238;5.686;2023-04-15T01:45:54;5.40;99.90
56512;DHT22;42408;53.238;5.686;2023-04-15T01:48:21;5.40;99.90
56512;DHT22;42408;53.238;5.686;2023-04-15T01:50:47;5.40;99.90
56512;DHT22;42408;53.238;5.686;2023-04-15T01:53:13;5.40;99.90
56512;DHT22;42408;53.238;5.686;2023-04-15T01:55:40;5.40;99.90
56512;DHT22;42408;53.238;5.686;2023-04-15T01:58:06;5.40;99.90
56512;DHT22;42408;53.238;5.686;2023-04-15T02:00:32;5.40;99.90
56512;DHT22;42408;53.238;5.686;2023-04-15T02:02:57;5.30;99.90
56512;DHT22;42408;53.238;5.686;2023-04-15T02:05:24;5.40;99.90
56512;DHT22;42408;53.238;5.686;2023-04-15T02:07:50;5.40;99.90
56512;DHT22;42408;53.238;5.686;2023-04-15T02:10:16;5.40;99.90
56512;DHT22;42408;53.238;5.686;2023-04-15T02:12:42;5.40;99.90
56512;DHT22;42408;53.238;5.686;2023-04-15T02:15:08;5.30;99.90
56512;DHT22;42408;53.238;5.686;2023-04-15T02:17:37;5.30;99.90
56512;DHT22;42408;53.238;5.686;2023-04-15T02:20:03;5.30;99.90
56512;DHT22;42408;53.238;5.686;2023-04-15T02:22:33;5.20;99.90
56512;DHT22;42408;53.238;5.686;2023-04-15T02:24:59;5.20;99.90
56512;DHT22;42408;53.238;5.686;2023-04-15T02:27:25;5.20;99.90
56512;DHT22;42408;53.238;5.686;2023-04-15T02:29:50;5.20;99.90
56512;DHT22;42408;53.238;5.686;2023-04-15T02:32:16;5.10;99.90
56512;DHT22;42408;53.238;5.686;2023-04-15T02:34:43;5.10;99.90
56512;DHT22;42408;53.238;5.686;2023-04-15T02:37:12;5.10;99.90
56512;DHT22;42408;53.238;5.686;2023-04-15T02:39:38;5.10;99.90
56512;DHT22;42408;53.238;5.686;2023-04-15T02:42:03;5.10;99.90
56512;DHT22;42408;53.238;5.686;2023-04-15T02:44:31;5.10;99.90
56512;DHT22;42408;53.238;5.686;2023-04-15T02:46:57;5.00;99.90
56512;DHT22;42408;53.238;5.686;2023-04-15T02:49:24;5.10;99.90
56512;DHT22;42408;53.238;5.686;2023-04-15T02:51:50;5.10;99.90
56512;DHT22;42408;53.238;5.686;2023-04-15T02:54:19;5.10;99.90
56512;DHT22;42408;53.238;5.686;2023-04-15T02:56:45;5.20;99.90
56512;DHT22;42408;53.238;5.686;2023-04-15T02:59:11;5.10;99.90
56512;DHT22;42408;53.238;5.686;2023-04-15T03:01:37;5.10;99.90
56512;DHT22;42408;53.238;5.686;2023-04-15T03:04:03;5.10;99.90
56512;DHT22;42408;53.238;5.686;2023-04-15T03:06:29;5.10;99.90
56512;DHT22;42408;53.238;5.686;2023-04-15T03:08:55;5.10;99.90
56512;DHT22;42408;53.238;5.686;2023-04-15T03:11:21;5.10;99.90
56512;DHT22;42408;53.238;5.686;2023-04-15T03:13:47;5.00;99.90
56512;DHT22;42408;53.238;5.686;2023-04-15T03:16:13;5.00;99.90
56512;DHT22;42408;53.238;5.686;2023-04-15T03:18:38;5.00;99.90
56512;DHT22;42408;53.238;5.686;2023-04-15T03:21:04;5.00;99.90
56512;DHT22;42408;53.238;5.686;2023-04-15T03:23:31;5.00;99.90
56512;DHT22;42408;53.238;5.686;2023-04-15T03:25:56;5.00;99.90
56512;DHT22;42408;53.238;5.686;2023-04-15T03:28:23;4.90;99.90
56512;DHT22;42408;53.238;5.686;2023-04-15T03:30:49;4.80;99.90
56512;DHT22;42408;53.238;5.686;2023-04-15T03:33:14;4.80;99.90
56512;DHT22;42408;53.238;5.686;2023-04-15T03:35:40;4.70;99.90
56512;DHT22;42408;53.238;5.686;2023-04-15T03:38:06;4.80;99.90
56512;DHT22;42408;53.238;5.686;2023-04-15T03:40:31;4.70;99.90
56512;DHT22;42408;53.238;5.686;2023-04-15T03:42:57;4.70;99.90
56512;DHT22;42408;53.238;5.686;2023-04-15T03:45:23;4.60;99.90
56512;DHT22;42408;53.238;5.686;2023-04-15T03:47:48;4.70;99.90
56512;DHT22;42408;53.238;5.686;2023-04-15T03:50:14;4.70;99.90
56512;DHT22;42408;53.238;5.686;2023-04-15T03:52:40;4.60;99.90
56512;DHT22;42408;53.238;5.686;2023-04-15T03:55:06;4.60;99.90
56512;DHT22;42408;53.238;5.686;2023-04-15T03:57:32;4.60;99.90
56512;DHT22;42408;53.238;5.686;2023-04-15T04:00:03;4.60;99.90
56512;DHT22;42408;53.238;5.686;2023-04-15T04:02:29;4.60;99.90
56512;DHT22;42408;53.238;5.686;2023-04-15T04:04:54;4.50;99.90
56512;DHT22;42408;53.238;5.686;2023-04-15T04:07:22;4.50;99.90
56512;DHT22;42408;53.238;5.686;2023-04-15T04:09:48;4.50;99.90
56512;DHT22;42408;53.238;5.686;2023-04-15T04:12:14;4.50;99.90
56512;DHT22;42408;53.238;5.686;2023-04-15T04:14:40;4.50;99.90
56512;DHT22;42408;53.238;5.686;2023-04-15T04:17:05;4.50;99.90
56512;DHT22;42408;53.238;5.686;2023-04-15T04:19:31;4.40;99.90
56512;DHT22;42408;53.238;5.686;2023-04-15T04:21:57;4.40;99.90
56512;DHT22;42408;53.238;5.686;2023-04-15T04:24:22;4.40;99.90
56512;DHT22;42408;53.238;5.686;2023-04-15T04:26:48;4.40;99.90
56512;DHT22;42408;53.238;5.686;2023-04-15T04:29:14;5.30;99.90
56512;DHT22;42408;53.238;5.686;2023-04-15T04:31:40;4.30;99.90
56512;DHT22;42408;53.238;5.686;2023-04-15T04:34:05;4.30;99.90
56512;DHT22;42408;53.238;5.686;2023-04-15T04:36:31;4.90;99.90
56512;DHT22;42408;53.238;5.686;2023-04-15T04:38:57;4.30;99.90
56512;DHT22;42408;53.238;5.686;2023-04-15T04:41:22;4.30;99.90
56512;DHT22;42408;53.238;5.686;2023-04-15T04:43:48;4.30;99.90
56512;DHT22;42408;53.238;5.686;2023-04-15T04:46:14;4.20;99.90
56512;DHT22;42408;53.238;5.686;2023-04-15T04:48:39;4.20;99.90
56512;DHT22;42408;53.238;5.686;2023-04-15T04:51:05;4.20;99.90
56512;DHT22;42408;53.238;5.686;2023-04-15T04:53:32;4.20;99.90
56512;DHT22;42408;53.238;5.686;2023-04-15T04:55:57;4.20;99.90
56512;DHT22;42408;53.238;5.686;2023-04-15T04:58:23;4.20;99.90
56512;DHT22;42408;53.238;5.686;2023-04-15T05:00:49;4.20;99.90
56512;DHT22;42408;53.238;5.686;2023-04-15T05:03:15;4.20;99.90
56512;DHT22;42408;53.238;5.686;2023-04-15T05:05:41;4.20;99.90
56512;DHT22;42408;53.238;5.686;2023-04-15T05:08:06;4.20;99.90
56512;DHT22;42408;53.238;5.686;2023-04-15T05:10:32;4.30;99.90
56512;DHT22;42408;53.238;5.686;2023-04-15T05:12:58;4.30;99.90
56512;DHT22;42408;53.238;5.686;2023-04-15T05:15:23;4.30;99.90
56512;DHT22;42408;53.238;5.686;2023-04-15T05:17:49;4.30;99.90
56512;DHT22;42408;53.238;5.686;2023-04-15T05:20:16;4.40;99.90
56512;DHT22;42408;53.238;5.686;2023-04-15T05:22:41;4.40;99.90
56512;DHT22;42408;53.238;5.686;2023-04-15T05:25:07;4.40;99.90
56512;DHT22;42408;53.238;5.686;2023-04-15T05:27:34;4.50;99.90
56512;DHT22;42408;53.238;5.686;2023-04-15T05:29:59;4.70;99.90
56512;DHT22;42408;53.238;5.686;2023-04-15T05:32:25;4.90;99.90
56512;DHT22;42408;53.238;5.686;2023-04-15T05:34:51;5.10;99.90
56512;DHT22;42408;53.238;5.686;2023-04-15T05:37:16;5.40;99.90
56512;DHT22;42408;53.238;5.686;2023-04-15T05:39:45;5.70;99.90
56512;DHT22;42408;53.238;5.686;2023-04-15T05:42:11;5.80;99.90
56512;DHT22;42408;53.238;5.686;2023-04-15T05:44:36;5.90;99.90
56512;DHT22;42408;53.238;5.686;2023-04-15T05:47:02;5.90;99.90
56512;DHT22;42408;53.238;5.686;2023-04-15T05:49:28;5.90;99.90
56512;DHT22;42408;53.238;5.686;2023-04-15T05:51:54;6.00;99.90
56512;DHT22;42408;53.238;5.686;2023-04-15T05:54:19;5.90;99.90
56512;DHT22;42408;53.238;5.686;2023-04-15T05:56:47;6.00;99.90
56512;DHT22;42408;53.238;5.686;2023-04-15T05:59:13;6.00;99.90
56512;DHT22;42408;53.238;5.686;2023-04-15T06:01:39;6.00;99.90
56512;DHT22;42408;53.238;5.686;2023-04-15T06:04:04;6.10;99.90
56512;DHT22;42408;53.238;5.686;2023-04-15T06:06:30;6.30;99.90
56512;DHT22;42408;53.238;5.686;2023-04-15T06:08:57;6.50;99.90
56512;DHT22;42408;53.238;5.686;2023-04-15T06:11:23;6.80;99.90
56512;DHT22;42408;53.238;5.686;2023-04-15T06:13:48;7.30;99.90
56512;DHT22;42408;53.238;5.686;2023-04-15T06:16:14;7.90;99.90
56512;DHT22;42408;53.238;5.686;2023-04-15T06:18:39;8.50;99.90
56512;DHT22;42408;53.238;5.686;2023-04-15T06:21:05;9.20;99.90
56512;DHT22;42408;53.238;5.686;2023-04-15T06:23:34;9.70;99.90
56512;DHT22;42408;53.238;5.686;2023-04-15T06:26:00;10.20;99.90
56512;DHT22;42408;53.238;5.686;2023-04-15T06:28:26;10.70;99.90
56512;DHT22;42408;53.238;5.686;2023-04-15T06:30:52;11.30;99.90
56512;DHT22;42408;53.238;5.686;2023-04-15T06:33:18;11.70;99.90
56512;DHT22;42408;53.238;5.686;2023-04-15T06:35:44;12.00;99.90
56512;DHT22;42408;53.238;5.686;2023-04-15T06:38:09;12.40;99.90
56512;DHT22;42408;53.238;5.686;2023-04-15T06:40:35;13.00;99.90
56512;DHT22;42408;53.238;5.686;2023-04-15T06:43:01;13.40;99.90
56512;DHT22;42408;53.238;5.686;2023-04-15T06:45:26;13.70;99.90
56512;DHT22;42408;53.238;5.686;2023-04-15T06:47:52;13.80;99.90
56512;DHT22;42408;53.238;5.686;2023-04-15T06:50:18;13.70;99.90
56512;DHT22;42408;53.238;5.686;2023-04-15T06:52:43;13.60;99.90
56512;DHT22;42408;53.238;5.686;2023-04-15T06:55:09;13.50;99.90
56512;DHT22;42408;53.238;5.686;2023-04-15T06:57:35;13.20;99.90
56512;DHT22;42408;53.238;5.686;2023-04-15T07:00:01;12.80;99.90
56512;DHT22;42408;53.238;5.686;2023-04-15T07:02:30;12.30;99.90
56512;DHT22;42408;53.238;5.686;2023-04-15T07:04:55;12.00;99.90
56512;DHT22;42408;53.238;5.686;2023-04-15T07:07:21;11.50;99.90
56512;DHT22;42408;53.238;5.686;2023-04-15T07:09:47;11.20;99.90
56512;DHT22;42408;53.238;5.686;2023-04-15T07:12:12;10.90;99.90
56512;DHT22;42408;53.238;5.686;2023-04-15T07:14:38;10.60;99.90
56512;DHT22;42408;53.238;5.686;2023-04-15T07:17:04;10.40;99.90
56512;DHT22;42408;53.238;5.686;2023-04-15T07:19:30;10.20;99.90
56512;DHT22;42408;53.238;5.686;2023-04-15T07:21:56;10.10;99.90
56512;DHT22;42408;53.238;5.686;2023-04-15T07:24:21;9.90;99.90
56512;DHT22;42408;53.238;5.686;2023-04-15T07:26:52;9.90;99.90
56512;DHT22;42408;53.238;5.686;2023-04-15T07:29:18;9.80;99.90
56512;DHT22;42408;53.238;5.686;2023-04-15T07:31:44;9.80;99.90
56512;DHT22;42408;53.238;5.686;2023-04-15T07:34:10;9.80;99.90
56512;DHT22;42408;53.238;5.686;2023-04-15T07:36:35;9.90;99.90
56512;DHT22;42408;53.238;5.686;2023-04-15T07:39:01;9.90;99.90
56512;DHT22;42408;53.238;5.686;2023-04-15T07:41:28;10.00;99.90
56512;DHT22;42408;53.238;5.686;2023-04-15T07:43:54;10.10;99.90
56512;DHT22;42408;53.238;5.686;2023-04-15T07:46:20;10.20;99.90
56512;DHT22;42408;53.238;5.686;2023-04-15T07:48:46;10.20;99.90
56512;DHT22;42408;53.238;5.686;2023-04-15T07:51:11;10.20;99.90
56512;DHT22;42408;53.238;5.686;2023-04-15T07:53:37;10.30;99.90
56512;DHT22;42408;53.238;5.686;2023-04-15T07:56:03;10.30;99.90
56512;DHT22;42408;53.238;5.686;2023-04-15T07:58:29;10.40;99.90
56512;DHT22;42408;53.238;5.686;2023-04-15T08:00:55;10.50;99.90
56512;DHT22;42408;53.238;5.686;2023-04-15T08:03:21;10.50;99.90
56512;DHT22;42408;53.238;5.686;2023-04-15T08:05:48;10.50;99.90
56512;DHT22;42408;53.238;5.686;2023-04-15T08:08:13;10.60;99.90
56512;DHT22;42408;53.238;5.686;2023-04-15T08:10:39;10.60;99.90
56512;DHT22;42408;53.238;5.686;2023-04-15T08:13:05;10.70;99.90
56512;DHT22;42408;53.238;5.686;2023-04-15T08:15:31;10.70;99.90
56512;DHT22;42408;53.238;5.686;2023-04-15T08:17:57;10.70;99.90
56512;DHT22;42408;53.238;5.686;2023-04-15T08:20:25;10.80;99.90
56512;DHT22;42408;53.238;5.686;2023-04-15T08:22:51;10.80;99.90
56512;DHT22;42408;53.238;5.686;2023-04-15T08:25:18;10.90;99.90
56512;DHT22;42408;53.238;5.686;2023-04-15T08:27:44;10.90;99.90
56512;DHT22;42408;53.238;5.686;2023-04-15T08:30:11;10.90;99.90
56512;DHT22;42408;53.238;5.686;2023-04-15T08:32:37;10.80;99.90
56512;DHT22;42408;53.238;5.686;2023-04-15T08:35:03;10.80;99.90
56512;DHT22;42408;53.238;5.686;2023-04-15T08:37:29;10.80;99.90
56512;DHT22;42408;53.238;5.686;2023-04-15T08:39:54;10.80;99.90
56512;DHT22;42408;53.238;5.686;2023-04-15T08:42:29;10.80;99.90
56512;DHT22;42408;53.238;5.686;2023-04-15T08:45:00;10.80;99.90
56512;DHT22;42408;53.238;5.686;2023-04-15T08:47:30;10.70;99.90
56512;DHT22;42408;53.238;5.686;2023-04-15T08:49:57;10.70;99.90
56512;DHT22;42408;53.238;5.686;2023-04-15T08:52:26;10.70;99.90
56512;DHT22;42408;53.238;5.686;2023-04-15T08:54:56;10.70;99.90
56512;DHT22;42408;53.238;5.686;2023-04-15T08:57:25;10.70;99.90
56512;DHT22;42408;53.238;5.686;2023-04-15T08:59:56;10.60;99.90
56512;DHT22;42408;53.238;5.686;2023-04-15T09:02:23;10.40;99.90
56512;DHT22;42408;53.238;5.686;2023-04-15T09:04:50;10.40;99.90
56512;DHT22;42408;53.238;5.686;2023-04-15T09:07:16;10.40;99.90
56512;DHT22;42408;53.238;5.686;2023-04-15T09:09:42;10.40;99.90
56512;DHT22;42408;53.238;5.686;2023-04-15T09:12:08;10.40;99.90
56512;DHT22;42408;53.238;5.686;2023-04-15T09:14:34;10.30;99.90
56512;DHT22;42408;53.238;5.686;2023-04-15T09:17:03;10.30;99.90
56512;DHT22;42408;53.238;5.686;2023-04-15T09:19:30;10.30;99.90
56512;DHT22;42408;53.238;5.686;2023-04-15T09:21:58;10.30;99.90
56512;DHT22;42408;53.238;5.686;2023-04-15T09:24:25;10.20;99.90
56512;DHT22;42408;53.238;5.686;2023-04-15T09:26:53;10.30;99.90
56512;DHT22;42408;53.238;5.686;2023-04-15T09:29:19;10.20;99.90
56512;DHT22;42408;53.238;5.686;2023-04-15T09:31:45;10.20;99.90
56512;DHT22;42408;53.238;5.686;2023-04-15T09:34:11;10.30;99.90
56512;DHT22;42408;53.238;5.686;2023-04-15T09:39:12;10.40;99.90
56512;DHT22;42408;53.238;5.686;2023-04-15T09:41:38;10.40;99.90
56512;DHT22;42408;53.238;5.686;2023-04-15T09:44:05;10.50;99.90
56512;DHT22;42408;53.238;5.686;2023-04-15T09:46:44;10.50;99.90
56512;DHT22;42408;53.238;5.686;2023-04-15T09:49:10;10.70;99.90
56512;DHT22;42408;53.238;5.686;2023-04-15T09:51:36;10.70;99.90
56512;DHT22;42408;53.238;5.686;2023-04-15T09:54:03;10.80;99.90
56512;DHT22;42408;53.238;5.686;2023-04-15T09:56:36;10.80;99.90
56512;DHT22;42408;53.238;5.686;2023-04-15T09:59:04;10.80;99.90
56512;DHT22;42408;53.238;5.686;2023-04-15T10:01:30;10.80;99.90
56512;DHT22;42408;53.238;5.686;2023-04-15T10:03:57;10.80;99.90
56512;DHT22;42408;53.238;5.686;2023-04-15T10:06:26;10.90;99.90
56512;DHT22;42408;53.238;5.686;2023-04-15T10:08:52;11.00;99.90
56512;DHT22;42408;53.238;5.686;2023-04-15T10:11:18;11.20;99.90
56512;DHT22;42408;53.238;5.686;2023-04-15T10:13:48;11.50;99.90
56512;DHT22;42408;53.238;5.686;2023-04-15T10:16:18;11.60;99.90
56512;DHT22;42408;53.238;5.686;2023-04-15T10:18:56;11.70;99.90
56512;DHT22;42408;53.238;5.686;2023-04-15T10:21:23;11.70;99.90
56512;DHT22;42408;53.238;5.686;2023-04-15T10:23:50;11.70;99.90
56512;DHT22;42408;53.238;5.686;2023-04-15T10:26:16;11.70;99.90
56512;DHT22;42408;53.238;5.686;2023-04-15T10:28:43;11.70;99.90
56512;DHT22;42408;53.238;5.686;2023-04-15T10:31:11;11.70;99.90
56512;DHT22;42408;53.238;5.686;2023-04-15T10:33:38;12.00;99.90
56512;DHT22;42408;53.238;5.686;2023-04-15T10:36:05;12.00;99.90
56512;DHT22;42408;53.238;5.686;2023-04-15T10:38:38;11.90;99.90
56512;DHT22;42408;53.238;5.686;2023-04-15T10:41:25;11.70;99.90
56512;DHT22;42408;53.238;5.686;2023-04-15T10:46:36;11.40;99.90
56512;DHT22;42408;53.238;5.686;2023-04-15T10:49:13;11.30;99.90
56512;DHT22;42408;53.238;5.686;2023-04-15T10:51:46;11.20;99.90
56512;DHT22;42408;53.238;5.686;2023-04-15T10:54:37;11.10;99.90
56512;DHT22;42408;53.238;5.686;2023-04-15T11:02:06;10.90;99.90
56512;DHT22;42408;53.238;5.686;2023-04-15T11:04:52;10.80;99.90
56512;DHT22;42408;53.238;5.686;2023-04-15T11:07:54;10.70;99.90
56512;DHT22;42408;53.238;5.686;2023-04-15T11:12:46;10.90;99.90
56512;DHT22;42408;53.238;5.686;2023-04-15T11:20:36;10.40;99.90
56512;DHT22;42408;53.238;5.686;2023-04-15T11:23:02;10.50;99.90
56512;DHT22;42408;53.238;5.686;2023-04-15T11:25:30;10.50;99.90
56512;DHT22;42408;53.238;5.686;2023-04-15T11:27:58;10.50;99.90
56512;DHT22;42408;53.238;5.686;2023-04-15T11:30:28;10.50;99.90
56512;DHT22;42408;53.238;5.686;2023-04-15T11:32:57;10.60;99.90
56512;DHT22;42408;53.238;5.686;2023-04-15T11:35:24;10.60;99.90
56512;DHT22;42408;53.238;5.686;2023-04-15T11:37:50;10.60;99.90
56512;DHT22;42408;53.238;5.686;2023-04-15T11:40:21;10.60;99.90
56512;DHT22;42408;53.238;5.686;2023-04-15T11:42:46;10.60;99.90
56512;DHT22;42408;53.238;5.686;2023-04-15T11:45:28;10.60;99.90
56512;DHT22;42408;53.238;5.686;2023-04-15T11:47:53;10.50;99.90
56512;DHT22;42408;53.238;5.686;2023-04-15T11:50:22;10.50;99.90
56512;DHT22;42408;53.238;5.686;2023-04-15T11:53:08;10.50;99.90
56512;DHT22;42408;53.238;5.686;2023-04-15T11:56:00;10.50;99.90
56512;DHT22;42408;53.238;5.686;2023-04-15T11:58:26;10.30;99.90
56512;DHT22;42408;53.238;5.686;2023-04-15T12:00:54;10.30;99.90
56512;DHT22;42408;53.238;5.686;2023-04-15T12:03:28;10.20;99.90
56512;DHT22;42408;53.238;5.686;2023-04-15T12:06:20;10.10;99.90
56512;DHT22;42408;53.238;5.686;2023-04-15T12:11:39;10.20;99.90
56512;DHT22;42408;53.238;5.686;2023-04-15T12:16:44;10.20;99.90
56512;DHT22;42408;53.238;5.686;2023-04-15T12:19:12;10.20;99.90
56512;DHT22;42408;53.238;5.686;2023-04-15T12:21:40;10.20;99.90
56512;DHT22;42408;53.238;5.686;2023-04-15T12:24:09;10.20;99.90
56512;DHT22;42408;53.238;5.686;2023-04-15T12:26:45;10.20;99.90
56512;DHT22;42408;53.238;5.686;2023-04-15T12:29:14;10.20;99.90
56512;DHT22;42408;53.238;5.686;2023-04-15T12:31:54;10.30;99.90
56512;DHT22;42408;53.238;5.686;2023-04-15T12:34:30;10.10;99.90
56512;DHT22;42408;53.238;5.686;2023-04-15T12:36:58;10.00;99.90
56512;DHT22;42408;53.238;5.686;2023-04-15T12:39:25;9.90;99.90
56512;DHT22;42408;53.238;5.686;2023-04-15T12:41:51;9.90;99.90
56512;DHT22;42408;53.238;5.686;2023-04-15T12:44:17;9.90;99.90
56512;DHT22;42408;53.238;5.686;2023-04-15T12:46:44;9.80;99.90
56512;DHT22;42408;53.238;5.686;2023-04-15T12:49:10;9.80;99.90
56512;DHT22;42408;53.238;5.686;2023-04-15T12:51:36;9.70;99.90
56512;DHT22;42408;53.238;5.686;2023-04-15T12:54:01;9.70;99.90
56512;DHT22;42408;53.238;5.686;2023-04-15T12:56:27;9.70;99.90
56512;DHT22;42408;53.238;5.686;2023-04-15T12:58:53;9.70;99.90
56512;DHT22;42408;53.238;5.686;2023-04-15T13:01:19;9.70;99.90
56512;DHT22;42408;53.238;5.686;2023-04-15T13:03:45;9.70;99.90
56512;DHT22;42408;53.238;5.686;2023-04-15T13:06:11;9.80;99.90
56512;DHT22;42408;53.238;5.686;2023-04-15T13:08:36;9.70;99.90
56512;DHT22;42408;53.238;5.686;2023-04-15T13:11:02;9.70;99.90
56512;DHT22;42408;53.238;5.686;2023-04-15T13:13:28;9.70;99.90
56512;DHT22;42408;53.238;5.686;2023-04-15T13:15:56;9.80;99.90
56512;DHT22;42408;53.238;5.686;2023-04-15T13:18:22;9.70;99.90
56512;DHT22;42408;53.238;5.686;2023-04-15T13:20:48;9.70;99.90
56512;DHT22;42408;53.238;5.686;2023-04-15T13:23:14;9.70;99.90
56512;DHT22;42408;53.238;5.686;2023-04-15T13:25:40;9.70;99.90
56512;DHT22;42408;53.238;5.686;2023-04-15T13:28:05;9.70;99.90
56512;DHT22;42408;53.238;5.686;2023-04-15T13:30:31;9.70;99.90
56512;DHT22;42408;53.238;5.686;2023-04-15T13:32:57;9.70;99.90
56512;DHT22;42408;53.238;5.686;2023-04-15T13:35:22;9.60;99.90
56512;DHT22;42408;53.238;5.686;2023-04-15T13:37:48;9.60;99.90
56512;DHT22;42408;53.238;5.686;2023-04-15T13:40:14;9.50;99.90
56512;DHT22;42408;53.238;5.686;2023-04-15T13:42:40;9.50;99.90
56512;DHT22;42408;53.238;5.686;2023-04-15T13:45:07;9.40;99.90
56512;DHT22;42408;53.238;5.686;2023-04-15T13:47:33;9.40;99.90
56512;DHT22;42408;53.238;5.686;2023-04-15T13:49:59;9.50;99.90
56512;DHT22;42408;53.238;5.686;2023-04-15T13:52:24;9.40;99.90
56512;DHT22;42408;53.238;5.686;2023-04-15T13:54:50;9.50;99.90
56512;DHT22;42408;53.238;5.686;2023-04-15T13:57:16;9.40;99.90
56512;DHT22;42408;53.238;5.686;2023-04-15T13:59:41;9.40;99.90
56512;DHT22;42408;53.238;5.686;2023-04-15T14:02:08;9.40;99.90
56512;DHT22;42408;53.238;5.686;2023-04-15T14:04:34;9.40;99.90
56512;DHT22;42408;53.238;5.686;2023-04-15T14:07:00;9.40;99.90
56512;DHT22;42408;53.238;5.686;2023-04-15T14:09:25;9.40;99.90
56512;DHT22;42408;53.238;5.686;2023-04-15T14:11:51;9.30;99.90
56512;DHT22;42408;53.238;5.686;2023-04-15T14:14:17;9.40;99.90
56512;DHT22;42408;53.238;5.686;2023-04-15T14:16:43;9.40;99.90
56512;DHT22;42408;53.238;5.686;2023-04-15T14:19:08;9.30;99.90
56512;DHT22;42408;53.238;5.686;2023-04-15T14:21:34;9.30;99.90
56512;DHT22;42408;53.238;5.686;2023-04-15T14:23:59;9.30;99.90
56512;DHT22;42408;53.238;5.686;2023-04-15T14:26:25;9.30;99.90
56512;DHT22;42408;53.238;5.686;2023-04-15T14:28:51;9.40;99.90
56512;DHT22;42408;53.238;5.686;2023-04-15T14:31:18;9.30;99.90
56512;DHT22;42408;53.238;5.686;2023-04-15T14:33:43;9.30;99.90
56512;DHT22;42408;53.238;5.686;2023-04-15T14:36:09;9.40;99.90
56512;DHT22;42408;53.238;5.686;2023-04-15T14:38:35;9.40;99.90
56512;DHT22;42408;53.238;5.686;2023-04-15T14:41:03;9.40;99.90
56512;DHT22;42408;53.238;5.686;2023-04-15T14:43:29;9.50;99.90
56512;DHT22;42408;53.238;5.686;2023-04-15T14:45:55;9.50;99.90
56512;DHT22;42408;53.238;5.686;2023-04-15T14:48:20;9.50;99.90
56512;DHT22;42408;53.238;5.686;2023-04-15T14:50:46;9.50;99.90
56512;DHT22;42408;53.238;5.686;2023-04-15T14:53:12;9.50;99.90
56512;DHT22;42408;53.238;5.686;2023-04-15T14:55:37;9.60;99.90
56512;DHT22;42408;53.238;5.686;2023-04-15T14:58:03;9.50;99.90
56512;DHT22;42408;53.238;5.686;2023-04-15T15:00:29;9.60;99.90
56512;DHT22;42408;53.238;5.686;2023-04-15T15:02:55;9.70;99.90
56512;DHT22;42408;53.238;5.686;2023-04-15T15:05:21;9.70;99.90
56512;DHT22;42408;53.238;5.686;2023-04-15T15:07:46;9.60;99.90
56512;DHT22;42408;53.238;5.686;2023-04-15T15:10:12;9.60;99.90
56512;DHT22;42408;53.238;5.686;2023-04-15T15:12:38;9.70;99.90
56512;DHT22;42408;53.238;5.686;2023-04-15T15:15:04;9.60;99.90
56512;DHT22;42408;53.238;5.686;2023-04-15T15:17:30;9.60;99.90
56512;DHT22;42408;53.238;5.686;2023-04-15T15:19:56;9.60;99.90
56512;DHT22;42408;53.238;5.686;2023-04-15T15:22:22;9.70;99.90
56512;DHT22;42408;53.238;5.686;2023-04-15T15:24:47;9.70;99.90
56512;DHT22;42408;53.238;5.686;2023-04-15T15:27:13;9.80;99.90
56512;DHT22;42408;53.238;5.686;2023-04-15T15:29:39;9.80;99.90
56512;DHT22;42408;53.238;5.686;2023-04-15T15:32:05;9.80;99.90
56512;DHT22;42408;53.238;5.686;2023-04-15T15:34:30;9.80;99.90
56512;DHT22;42408;53.238;5.686;2023-04-15T15:36:56;9.80;99.90
56512;DHT22;42408;53.238;5.686;2023-04-15T15:39:22;9.80;99.90
56512;DHT22;42408;53.238;5.686;2023-04-15T15:41:48;9.80;99.90
56512;DHT22;42408;53.238;5.686;2023-04-15T15:44:14;9.80;99.90
56512;DHT22;42408;53.238;5.686;2023-04-15T15:46:40;9.70;99.90
56512;DHT22;42408;53.238;5.686;2023-04-15T15:49:06;9.70;99.90
56512;DHT22;42408;53.238;5.686;2023-04-15T15:51:32;9.60;99.90
56512;DHT22;42408;53.238;5.686;2023-04-15T15:53:57;9.60;99.90
56512;DHT22;42408;53.238;5.686;2023-04-15T15:56:23;9.50;99.90
56512;DHT22;42408;53.238;5.686;2023-04-15T15:58:49;9.50;99.90
56512;DHT22;42408;53.238;5.686;2023-04-15T16:01:14;9.50;99.90